createdAt,value
2019-04-06T00:01:23.404Z,34.43
2019-04-06T00:03:53.456Z,30.50
2019-04-06T00:06:23.496Z,31.90
2019-04-06T00:08:53.807Z,32.17
2019-04-06T00:11:24.093Z,32.70
2019-04-06T00:13:54.412Z,35.97
2019-04-06T00:16:24.920Z,31.30
2019-04-06T00:18:55.208Z,31.93
2019-04-06T00:21:25.307Z,33.90
2019-04-06T00:23:55.623Z,31.70
2019-04-06T00:26:25.661Z,31.80
2019-04-06T00:28:55.801Z,30.10
2019-04-06T00:31:35.648Z,28.77
2019-04-06T00:34:05.701Z,28.97
2019-04-06T00:36:35.968Z,31.43
2019-04-06T00:39:06.780Z,29.17
2019-04-06T00:41:37.088Z,29.10
2019-04-06T00:44:07.620Z,27.47
2019-04-06T00:46:37.652Z,30.13
2019-04-06T00:49:08.056Z,28.97
2019-04-06T00:51:38.098Z,29.93
2019-04-06T00:54:08.119Z,28.73
2019-04-06T00:56:38.304Z,27.70
2019-04-06T00:59:08.698Z,27.37
2019-04-06T01:01:39.073Z,25.90
2019-04-06T01:04:09.351Z,27.00
2019-04-06T01:06:39.876Z,24.67
2019-04-06T01:09:10.405Z,24.40
2019-04-06T01:11:40.694Z,27.27
2019-04-06T01:14:10.721Z,23.27
2019-04-06T01:16:40.784Z,22.90
2019-04-06T01:19:11.793Z,22.70
2019-04-06T01:21:41.867Z,22.43
2019-04-06T01:24:11.898Z,23.20
2019-04-06T01:26:42.232Z,22.73
2019-04-06T01:29:12.512Z,25.03
2019-04-06T01:31:42.732Z,24.27
2019-04-06T01:34:12.831Z,24.17
2019-04-06T01:36:42.960Z,24.10
2019-04-06T01:39:13.450Z,26.27
2019-04-06T01:41:43.732Z,26.90
2019-04-06T01:44:13.880Z,27.23
2019-04-06T01:46:44.153Z,28.63
2019-04-06T01:49:14.727Z,26.87
2019-04-06T01:51:45.464Z,28.60
2019-04-06T01:54:15.869Z,24.50
2019-04-06T01:56:45.999Z,28.10
2019-04-06T01:59:16.336Z,27.20
2019-04-06T02:01:52.577Z,24.77
2019-04-06T02:04:22.648Z,24.80
2019-04-06T02:06:52.732Z,26.60
2019-04-06T02:09:22.772Z,27.00
2019-04-06T02:11:53.269Z,26.30
2019-04-06T02:14:23.572Z,25.73
2019-04-06T02:16:53.861Z,25.37
2019-04-06T02:19:23.912Z,26.03
2019-04-06T02:21:54.308Z,24.73
2019-04-06T02:24:24.615Z,23.80
2019-04-06T02:26:54.656Z,24.90
2019-04-06T02:29:24.712Z,24.90
2019-04-06T02:32:15.430Z,24.90
2019-04-06T02:35:22.918Z,23.20
2019-04-06T02:38:06.016Z,24.50
2019-04-06T02:40:55.565Z,23.33
2019-04-06T02:43:28.494Z,23.27
2019-04-06T02:45:59.538Z,25.00
2019-04-06T02:48:29.605Z,24.60
2019-04-06T02:50:59.953Z,24.10
2019-04-06T02:53:30.544Z,24.47
2019-04-06T02:56:00.589Z,24.30
2019-04-06T02:58:30.697Z,22.80
2019-04-06T03:01:01.213Z,25.97
2019-04-06T03:03:31.396Z,25.80
2019-04-06T03:06:02.068Z,26.07
2019-04-06T03:08:32.447Z,26.00
2019-04-06T03:11:02.617Z,26.70
2019-04-06T03:13:32.818Z,24.53
2019-04-06T03:16:03.104Z,27.80
2019-04-06T03:18:33.444Z,24.60
2019-04-06T03:21:03.792Z,26.43
2019-04-06T03:23:33.844Z,25.47
2019-04-06T03:26:04.397Z,25.60
2019-04-06T03:28:34.705Z,27.60
2019-04-06T03:31:04.921Z,27.70
2019-04-06T03:33:35.405Z,25.37
2019-04-06T03:36:05.682Z,26.37
2019-04-06T03:38:36.069Z,24.80
2019-04-06T03:41:06.411Z,23.93
2019-04-06T03:43:36.993Z,24.83
2019-04-06T03:46:07.293Z,26.17
2019-04-06T03:48:37.796Z,24.90
2019-04-06T03:51:07.898Z,22.30
2019-04-06T03:53:37.966Z,26.50
2019-04-06T03:56:08.053Z,25.20
2019-04-06T03:58:38.332Z,25.00
2019-04-06T04:01:08.882Z,23.50
2019-04-06T04:03:40.382Z,25.27
2019-04-06T04:06:10.625Z,25.00
2019-04-06T04:08:40.820Z,24.70
2019-04-06T04:11:11.161Z,25.70
2019-04-06T04:13:41.425Z,26.67
2019-04-06T04:16:11.775Z,24.57
2019-04-06T04:18:41.838Z,23.17
2019-04-06T04:21:11.901Z,23.37
2019-04-06T04:23:42.308Z,23.27
2019-04-06T04:26:12.849Z,26.27
2019-04-06T04:28:43.125Z,22.27
2019-04-06T04:31:13.177Z,22.90
2019-04-06T04:33:43.203Z,23.93
2019-04-06T04:36:13.477Z,24.07
2019-04-06T04:38:43.721Z,24.27
2019-04-06T04:41:13.780Z,26.97
2019-04-06T04:43:43.824Z,25.30
2019-04-06T04:46:14.068Z,26.33
2019-04-06T04:48:44.685Z,24.93
2019-04-06T04:51:15.198Z,25.10
2019-04-06T04:53:45.243Z,25.20
2019-04-06T04:56:15.972Z,25.50
2019-04-06T04:58:46.113Z,24.33
2019-04-06T05:01:16.152Z,27.13
2019-04-06T05:03:46.675Z,26.40
2019-04-06T05:06:16.715Z,25.80
2019-04-06T05:08:46.980Z,24.50
2019-04-06T05:11:17.024Z,25.80
2019-04-06T05:13:47.055Z,25.20
2019-04-06T05:16:17.332Z,26.33
2019-04-06T05:18:47.360Z,25.23
2019-04-06T05:21:17.480Z,27.13
2019-04-06T05:23:47.861Z,26.20
2019-04-06T05:26:18.173Z,25.30
2019-04-06T05:28:48.191Z,24.83
2019-04-06T05:31:18.240Z,25.70
2019-04-06T05:33:48.517Z,26.10
2019-04-06T05:36:18.796Z,26.83
2019-04-06T05:38:49.439Z,27.07
2019-04-06T05:41:19.951Z,25.27
2019-04-06T05:43:49.984Z,26.67
2019-04-06T05:46:20.040Z,25.83
2019-04-06T05:48:50.542Z,25.83
2019-04-06T05:51:20.683Z,25.00
2019-04-06T05:53:50.980Z,26.07
2019-04-06T05:56:21.273Z,25.70
2019-04-06T05:58:51.532Z,23.50
2019-04-06T06:01:21.929Z,25.97
2019-04-06T06:03:52.110Z,28.60
2019-04-06T06:06:22.717Z,26.60
2019-04-06T06:08:52.797Z,27.67
2019-04-06T06:11:24.051Z,25.73
2019-04-06T06:13:54.100Z,28.00
2019-04-06T06:16:24.159Z,28.33
2019-04-06T06:18:54.246Z,28.97
2019-04-06T06:21:24.356Z,26.30
2019-04-06T06:23:54.541Z,26.50
2019-04-06T06:26:24.614Z,26.27
2019-04-06T06:28:55.096Z,25.90
2019-04-06T06:31:25.610Z,26.30
2019-04-06T06:33:55.673Z,25.43
2019-04-06T06:36:26.164Z,27.50
2019-04-06T06:38:56.477Z,26.47
2019-04-06T06:41:26.761Z,27.00
2019-04-06T06:43:57.035Z,29.90
2019-04-06T06:46:27.315Z,27.10
2019-04-06T06:48:57.381Z,27.80
2019-04-06T06:51:27.890Z,25.73
2019-04-06T06:53:57.999Z,29.37
2019-04-06T06:56:28.308Z,26.77
2019-04-06T06:58:59.316Z,26.03
2019-04-06T07:01:29.604Z,27.40
2019-04-06T07:03:59.672Z,27.20
2019-04-06T07:06:30.428Z,28.40
2019-04-06T07:09:00.756Z,27.20
2019-04-06T07:11:32.660Z,27.07
2019-04-06T07:14:02.768Z,24.03
2019-04-06T07:16:33.471Z,26.33
2019-04-06T07:19:03.513Z,26.97
2019-04-06T07:21:33.619Z,27.83
2019-04-06T07:24:03.818Z,29.50
2019-04-06T07:26:33.895Z,28.13
2019-04-06T07:29:04.486Z,28.00
2019-04-06T07:31:34.869Z,27.23
2019-04-06T07:34:05.204Z,26.30
2019-04-06T07:36:35.730Z,26.87
2019-04-06T07:39:06.474Z,25.43
2019-04-06T07:41:37.580Z,28.90
2019-04-06T07:44:08.940Z,25.67
2019-04-06T07:46:39.020Z,27.23
2019-04-06T07:49:10.359Z,26.23
2019-04-06T07:51:41.425Z,26.60
2019-04-06T07:54:12.120Z,23.77
2019-04-06T07:56:42.429Z,28.17
2019-04-06T07:59:12.470Z,26.83
2019-04-06T08:01:42.836Z,27.40
2019-04-06T08:04:13.572Z,28.73
2019-04-06T08:06:45.057Z,27.80
2019-04-06T08:09:15.622Z,27.20
2019-04-06T08:11:45.924Z,25.50
2019-04-06T08:14:16.006Z,28.23
2019-04-06T08:16:46.053Z,26.27
2019-04-06T08:19:18.475Z,26.47
2019-04-06T08:21:48.744Z,25.27
2019-04-06T08:24:19.030Z,26.10
2019-04-06T08:26:50.384Z,26.07
2019-04-06T08:29:20.684Z,25.73
2019-04-06T08:31:51.207Z,26.30
2019-04-06T08:34:21.536Z,26.20
2019-04-06T08:36:51.604Z,24.93
2019-04-06T08:39:21.676Z,26.07
2019-04-06T08:41:51.934Z,26.62
2019-04-06T08:44:22.539Z,26.60
2019-04-06T08:46:52.667Z,25.53
2019-04-06T08:49:22.947Z,23.77
2019-04-06T08:51:53.464Z,24.40
2019-04-06T08:54:24.303Z,23.90
2019-04-06T08:56:55.011Z,23.70
2019-04-06T08:59:25.353Z,23.57
2019-04-06T09:01:55.724Z,22.93
2019-04-06T09:04:26.190Z,25.87
2019-04-06T09:06:56.812Z,25.03
2019-04-06T09:09:26.868Z,23.10
2019-04-06T09:11:57.143Z,22.87
2019-04-06T09:14:28.241Z,24.80
2019-04-06T09:16:58.652Z,22.33
2019-04-06T09:19:28.754Z,24.70
2019-04-06T09:21:58.847Z,24.60
2019-04-06T09:24:29.166Z,21.43
2019-04-06T09:26:59.411Z,23.13
2019-04-06T09:29:29.429Z,26.10
2019-04-06T09:31:59.801Z,24.10
2019-04-06T09:34:31.173Z,23.80
2019-04-06T09:37:01.906Z,24.27
2019-04-06T09:39:32.590Z,23.50
2019-04-06T09:42:02.644Z,24.50
2019-04-06T09:44:41.064Z,24.20
2019-04-06T09:47:19.723Z,22.00
2019-04-06T09:49:58.119Z,22.37
2019-04-06T09:52:47.352Z,21.57
2019-04-06T09:55:38.266Z,24.87
2019-04-06T09:58:33.434Z,22.93
2019-04-06T10:01:16.844Z,23.00
2019-04-06T10:04:01.041Z,23.63
2019-04-06T10:06:47.628Z,20.97
2019-04-06T10:09:45.868Z,22.47
2019-04-06T10:12:38.952Z,22.50
2019-04-06T10:15:40.698Z,22.87
2019-04-06T10:18:28.742Z,24.10
2019-04-06T10:21:18.472Z,22.47
2019-04-06T10:24:19.688Z,24.77
2019-04-06T10:27:06.797Z,23.10
2019-04-06T10:29:53.204Z,24.20
2019-04-06T10:32:42.292Z,22.63
2019-04-06T10:35:30.060Z,22.37
2019-04-06T10:38:31.454Z,22.90
2019-04-06T10:41:08.417Z,23.70
2019-04-06T10:44:10.732Z,22.30
2019-04-06T10:46:49.993Z,23.10
2019-04-06T10:49:41.468Z,21.50
2019-04-06T10:52:29.356Z,22.30
2019-04-06T10:55:14.856Z,23.07
2019-04-06T10:58:00.222Z,22.20
2019-04-06T11:00:49.184Z,21.03
2019-04-06T11:03:31.000Z,22.77
2019-04-06T11:06:26.244Z,22.17
2019-04-06T11:09:10.557Z,21.17
2019-04-06T11:11:52.955Z,21.93
2019-04-06T11:14:36.600Z,21.10
2019-04-06T11:17:29.239Z,21.00
2019-04-06T11:20:06.653Z,21.80
2019-04-06T11:22:45.984Z,22.70
2019-04-06T11:25:24.648Z,21.67
2019-04-06T11:28:08.853Z,18.87
2019-04-06T11:30:49.096Z,22.00
2019-04-06T11:33:29.476Z,18.70
2019-04-06T11:36:12.254Z,21.60
2019-04-06T11:39:00.398Z,16.17
2019-04-06T11:41:48.844Z,16.50
2019-04-06T11:44:41.912Z,15.80
2019-04-06T11:47:34.372Z,14.90
2019-04-06T11:50:15.505Z,14.30
2019-04-06T11:53:10.134Z,15.20
2019-04-06T11:55:58.446Z,15.90
2019-04-06T11:58:39.069Z,15.40
2019-04-06T12:01:26.687Z,16.60
2019-04-06T12:04:02.341Z,15.07
2019-04-06T12:06:43.772Z,14.27
2019-04-06T12:09:30.211Z,14.47
2019-04-06T12:12:19.420Z,14.17
2019-04-06T12:15:01.622Z,14.10
2019-04-06T12:17:52.090Z,14.57
2019-04-06T12:20:33.017Z,14.77
2019-04-06T12:23:28.453Z,13.47
2019-04-06T12:26:20.684Z,15.07
2019-04-06T12:29:00.144Z,13.10
2019-04-06T12:31:39.320Z,16.50
2019-04-06T12:34:35.291Z,16.57
2019-04-06T12:37:23.530Z,16.97
2019-04-06T12:40:04.476Z,15.67
2019-04-06T12:43:02.996Z,15.90
2019-04-06T12:45:55.659Z,15.90
2019-04-06T12:48:43.741Z,16.40
2019-04-06T12:51:20.605Z,15.57
2019-04-06T12:54:00.046Z,14.07
2019-04-06T12:56:48.294Z,14.23
2019-04-06T12:59:38.065Z,15.73
2019-04-06T13:02:26.280Z,13.30
2019-04-06T13:05:15.298Z,14.60
2019-04-06T13:08:02.212Z,16.00
2019-04-06T13:10:51.589Z,13.00
2019-04-06T13:13:50.117Z,13.63
2019-04-06T13:16:26.584Z,14.87
2019-04-06T13:19:16.461Z,14.50
2019-04-06T13:21:55.388Z,14.93
2019-04-06T13:24:31.473Z,15.80
2019-04-06T13:27:10.960Z,14.53
2019-04-06T13:30:18.692Z,13.60
2019-04-06T13:32:58.860Z,14.97
2019-04-06T13:35:44.190Z,12.80
2019-04-06T13:38:48.862Z,11.93
2019-04-06T13:41:31.803Z,14.40
2019-04-06T13:44:21.391Z,14.23
2019-04-06T13:47:00.071Z,12.53
2019-04-06T13:49:49.260Z,12.50
2019-04-06T13:52:24.520Z,13.20
2019-04-06T13:55:13.298Z,14.27
2019-04-06T13:58:02.989Z,12.10
2019-04-06T14:00:42.653Z,13.90
2019-04-06T14:03:31.122Z,13.57
2019-04-06T14:06:19.578Z,14.30
2019-04-06T14:09:02.541Z,12.20
2019-04-06T14:11:51.018Z,14.20
2019-04-06T14:14:31.460Z,13.77
2019-04-06T14:17:14.836Z,13.57
2019-04-06T14:20:03.272Z,12.63
2019-04-06T14:22:48.986Z,14.10
2019-04-06T14:25:33.384Z,14.27
2019-04-06T14:28:21.289Z,13.20
2019-04-06T14:31:03.109Z,13.33
2019-04-06T14:33:45.120Z,11.70
2019-04-06T14:36:29.763Z,10.83
2019-04-06T14:39:17.993Z,12.90
2019-04-06T14:42:06.228Z,11.60
2019-04-06T14:44:55.811Z,14.67
2019-04-06T14:47:48.467Z,13.23
2019-04-06T14:50:36.296Z,14.47
2019-04-06T14:53:25.794Z,16.07
2019-04-06T14:56:21.226Z,13.10
2019-04-06T14:59:22.398Z,11.03
2019-04-06T15:02:10.456Z,13.30
2019-04-06T15:04:58.957Z,14.90
2019-04-06T15:07:47.990Z,12.40
2019-04-06T15:10:35.828Z,12.57
2019-04-06T15:13:18.075Z,11.07
2019-04-06T15:16:09.564Z,10.23
2019-04-06T15:19:05.534Z,10.07
2019-04-06T15:21:55.469Z,10.83
2019-04-06T15:24:44.051Z,9.60
2019-04-06T15:27:21.712Z,10.50
2019-04-06T15:30:00.338Z,10.50
2019-04-06T15:32:44.999Z,9.63
2019-04-06T15:35:40.757Z,10.27
2019-04-06T15:38:21.807Z,11.43
2019-04-06T15:40:58.020Z,11.53
2019-04-06T15:43:41.148Z,12.20
2019-04-06T15:46:18.081Z,10.30
2019-04-06T15:49:06.849Z,11.43
2019-04-06T15:51:48.497Z,11.60
2019-04-06T15:54:36.604Z,11.63
2019-04-06T15:57:21.205Z,11.00
2019-04-06T16:00:28.852Z,13.30
2019-04-06T16:03:15.522Z,12.07
2019-04-06T16:06:07.260Z,13.50
2019-04-06T16:09:07.443Z,10.87
2019-04-06T16:11:46.032Z,13.20
2019-04-06T16:14:35.864Z,11.30
2019-04-06T16:17:14.438Z,12.57
2019-04-06T16:20:07.292Z,10.70
2019-04-06T16:22:46.075Z,11.17
2019-04-06T16:25:31.911Z,10.53
2019-04-06T16:28:08.051Z,10.43
2019-04-06T16:30:44.155Z,10.70
2019-04-06T16:33:27.226Z,10.77
2019-04-06T16:36:18.043Z,11.57
2019-04-06T16:39:06.160Z,11.97
2019-04-06T16:41:44.544Z,12.40
2019-04-06T16:44:28.160Z,13.07
2019-04-06T16:47:26.840Z,11.97
2019-04-06T16:50:11.121Z,12.63
2019-04-06T16:53:06.726Z,13.30
2019-04-06T16:55:48.798Z,14.23
2019-04-06T16:58:39.920Z,14.73
2019-04-06T17:01:41.662Z,12.90
2019-04-06T17:04:25.087Z,12.37
2019-04-06T17:07:13.065Z,13.20
2019-04-06T17:10:18.215Z,11.20
2019-04-06T17:12:58.424Z,11.30
2019-04-06T17:15:50.299Z,12.07
2019-04-06T17:18:34.272Z,12.27
2019-04-06T17:21:19.356Z,11.73
2019-04-06T17:23:55.156Z,11.97
2019-04-06T17:26:32.493Z,21.73
2019-04-06T17:29:21.914Z,15.90
2019-04-06T17:32:04.246Z,11.80
2019-04-06T17:34:59.937Z,11.33
2019-04-06T17:37:35.751Z,13.43
2019-04-06T17:40:19.866Z,14.30
2019-04-06T17:42:59.746Z,12.73
2019-04-06T17:45:42.802Z,14.50
2019-04-06T17:48:19.382Z,13.60
2019-04-06T17:51:01.451Z,14.67
2019-04-06T17:53:45.400Z,16.30
2019-04-06T17:56:35.170Z,13.77
2019-04-06T17:59:23.741Z,13.43
2019-04-06T18:02:12.189Z,12.37
2019-04-06T18:05:11.047Z,11.37
2019-04-06T18:07:56.989Z,12.20
2019-04-06T18:10:52.803Z,11.43
2019-04-06T18:13:30.177Z,12.00
2019-04-06T18:16:00.324Z,11.37
2019-04-06T18:18:30.646Z,12.40
2019-04-06T18:21:00.948Z,12.30
2019-04-06T18:23:31.256Z,11.10
2019-04-06T18:26:01.918Z,16.80
2019-04-06T18:28:32.198Z,13.73
2019-04-06T18:31:09.240Z,12.33
2019-04-06T18:33:40.190Z,12.37
2019-04-06T18:36:10.857Z,13.23
2019-04-06T18:38:47.753Z,13.93
2019-04-06T18:41:18.620Z,12.10
2019-04-06T18:43:48.916Z,11.57
2019-04-06T18:46:19.928Z,11.53
2019-04-06T18:48:50.271Z,13.27
2019-04-06T18:51:20.725Z,11.60
2019-04-06T18:53:51.398Z,11.77
2019-04-06T18:56:21.547Z,12.70
2019-04-06T18:58:52.858Z,11.57
2019-04-06T19:01:23.657Z,12.60
2019-04-06T19:03:54.193Z,13.70
2019-04-06T19:06:24.356Z,14.93
2019-04-06T19:08:55.067Z,13.57
2019-04-06T19:11:26.491Z,14.50
2019-04-06T19:13:56.941Z,14.53
2019-04-06T19:16:27.362Z,12.70
2019-04-06T19:18:57.703Z,14.63
2019-04-06T19:21:30.358Z,14.00
2019-04-06T19:24:00.691Z,15.03
2019-04-06T19:26:31.256Z,16.17
2019-04-06T19:29:01.704Z,14.43
2019-04-06T19:31:31.780Z,13.20
2019-04-06T19:34:02.309Z,13.30
2019-04-06T19:36:33.061Z,14.97
2019-04-06T19:39:04.252Z,12.93
2019-04-06T19:41:35.361Z,13.73
2019-04-06T19:44:05.742Z,12.20
2019-04-06T19:46:36.289Z,14.90
2019-04-06T19:49:07.493Z,12.40
2019-04-06T19:51:37.916Z,13.33
2019-04-06T19:54:08.348Z,12.77
2019-04-06T19:56:38.625Z,13.20
2019-04-06T19:59:08.808Z,13.87
2019-04-06T20:01:39.955Z,13.70
2019-04-06T20:04:10.171Z,13.93
2019-04-06T20:06:41.058Z,12.43
2019-04-06T20:09:11.703Z,15.93
2019-04-06T20:11:42.170Z,12.87
2019-04-06T20:14:12.342Z,13.80
2019-04-06T20:16:43.113Z,14.87
2019-04-06T20:19:13.463Z,16.27
2019-04-06T20:21:43.637Z,13.63
2019-04-06T20:24:18.070Z,15.47
2019-04-06T20:26:48.671Z,16.37
2019-04-06T20:29:19.345Z,15.33
2019-04-06T20:31:50.157Z,15.03
2019-04-06T20:34:20.601Z,15.30
2019-04-06T20:36:51.123Z,15.20
2019-04-06T20:39:21.921Z,16.43
2019-04-06T20:41:52.989Z,15.80
2019-04-06T20:44:23.378Z,15.00
2019-04-06T20:46:54.155Z,13.90
2019-04-06T20:49:24.739Z,15.33
2019-04-06T20:51:54.855Z,16.60
2019-04-06T20:54:25.164Z,15.07
2019-04-06T20:56:58.169Z,15.93
2019-04-06T20:59:27.178Z,16.20
2019-04-06T21:01:57.835Z,16.23
2019-04-06T21:04:28.188Z,15.40
2019-04-06T21:06:59.936Z,16.60
2019-04-06T21:09:30.619Z,17.37
2019-04-06T21:12:01.347Z,16.50
2019-04-06T21:14:31.897Z,17.03
2019-04-06T21:17:02.571Z,16.07
2019-04-06T21:19:33.905Z,16.10
2019-04-06T21:22:04.339Z,18.90
2019-04-06T21:24:35.008Z,20.20
2019-04-06T21:27:05.396Z,19.10
2019-04-06T21:29:36.425Z,18.00
2019-04-06T21:32:07.330Z,17.27
2019-04-06T21:34:38.296Z,16.03
2019-04-06T21:37:08.857Z,15.23
2019-04-06T21:39:39.786Z,17.10
2019-04-06T21:42:10.724Z,15.67
2019-04-06T21:44:41.127Z,16.77
2019-04-06T21:47:12.148Z,16.30
2019-04-06T21:49:42.547Z,14.00
2019-04-06T21:52:12.970Z,13.93
2019-04-06T21:54:43.016Z,16.73
2019-04-06T21:57:13.319Z,15.40
2019-04-06T21:59:44.058Z,16.70
2019-04-06T22:02:14.808Z,15.30
2019-04-06T22:04:45.333Z,16.30
2019-04-06T22:07:16.510Z,14.90
2019-04-06T22:09:46.851Z,14.67
2019-04-06T22:12:17.442Z,15.87
2019-04-06T22:14:47.517Z,15.30
2019-04-06T22:17:17.609Z,15.07
2019-04-06T22:19:48.245Z,15.47
2019-04-06T22:22:18.880Z,16.50
2019-04-06T22:24:50.124Z,14.63
2019-04-06T22:27:21.181Z,13.07
2019-04-06T22:29:51.350Z,14.57
2019-04-06T22:32:21.715Z,14.47
2019-04-06T22:34:52.063Z,15.50
2019-04-06T22:37:22.249Z,14.17
2019-04-06T22:39:52.563Z,13.57
2019-04-06T22:42:23.137Z,13.60
2019-04-06T22:44:53.636Z,13.10
2019-04-06T22:47:24.407Z,14.00
2019-04-06T22:49:54.705Z,13.90
2019-04-06T22:52:25.117Z,13.70
2019-04-06T22:54:55.872Z,13.20
2019-04-06T22:57:26.197Z,13.70
2019-04-06T22:59:56.388Z,14.10
2019-04-06T23:02:28.400Z,13.90
2019-04-06T23:05:07.251Z,13.30
2019-04-06T23:07:37.911Z,15.43
2019-04-06T23:10:08.340Z,14.17
2019-04-06T23:12:39.380Z,14.23
2019-04-06T23:15:11.605Z,13.63
2019-04-06T23:17:42.089Z,13.07
2019-04-06T23:20:12.660Z,14.43
2019-04-06T23:22:43.684Z,15.43
2019-04-06T23:25:14.996Z,14.87
2019-04-06T23:27:45.658Z,14.90
2019-04-06T23:30:16.060Z,15.80
2019-04-06T23:32:46.590Z,14.40
2019-04-06T23:35:17.252Z,16.07
2019-04-06T23:37:48.275Z,14.50
2019-04-06T23:40:18.699Z,15.87
2019-04-06T23:42:49.196Z,17.10
2019-04-06T23:45:19.625Z,14.47
2019-04-06T23:47:50.048Z,15.27
2019-04-06T23:50:20.427Z,14.23
2019-04-06T23:52:50.524Z,14.60
2019-04-06T23:55:21.273Z,14.57
2019-04-06T23:57:52.333Z,15.80
